createdAt,value
2019-05-01T00:01:15.849Z,10.70
2019-05-01T00:04:04.171Z,10.66
2019-05-01T00:06:40.025Z,10.65
2019-05-01T00:09:11.147Z,10.64
2019-05-01T00:11:40.502Z,10.60
2019-05-01T00:14:10.361Z,10.58
2019-05-01T00:16:41.085Z,10.56
2019-05-01T00:19:10.576Z,10.55
2019-05-01T00:21:40.515Z,10.53
2019-05-01T00:24:09.973Z,10.51
2019-05-01T00:26:39.347Z,10.51
2019-05-01T00:29:08.815Z,10.49
2019-05-01T00:31:38.488Z,10.47
2019-05-01T00:34:07.844Z,10.44
2019-05-01T00:36:37.205Z,10.40
2019-05-01T00:39:09.338Z,10.40
2019-05-01T00:41:38.694Z,10.40
2019-05-01T00:44:08.061Z,10.41
2019-05-01T00:46:37.572Z,10.44
2019-05-01T00:49:06.961Z,10.44
2019-05-01T00:51:36.320Z,10.43
2019-05-01T00:54:05.955Z,10.44
2019-05-01T00:56:49.747Z,10.44
2019-05-01T00:59:32.117Z,10.44
2019-05-01T01:02:31.662Z,10.44
2019-05-01T01:05:01.156Z,10.46
2019-05-01T01:07:30.520Z,10.46
2019-05-01T01:09:59.911Z,10.47
2019-05-01T01:12:29.312Z,10.48
2019-05-01T01:14:58.973Z,10.50
2019-05-01T01:17:28.569Z,10.52
2019-05-01T01:19:58.669Z,10.56
2019-05-01T01:22:28.079Z,10.59
2019-05-01T01:24:57.668Z,10.64
2019-05-01T01:27:27.404Z,10.68
2019-05-01T01:29:56.999Z,10.71
2019-05-01T01:32:26.415Z,10.71
2019-05-01T01:34:55.891Z,10.78
2019-05-01T01:37:25.835Z,10.80
2019-05-01T01:39:55.323Z,10.82
2019-05-01T01:42:25.095Z,10.84
2019-05-01T01:45:13.706Z,10.86
2019-05-01T01:48:01.347Z,10.87
2019-05-01T01:50:31.213Z,10.87
2019-05-01T01:53:00.923Z,10.87
2019-05-01T01:55:30.706Z,10.85
2019-05-01T01:58:00.323Z,10.81
2019-05-01T02:00:39.035Z,10.84
2019-05-01T02:03:09.767Z,10.84
2019-05-01T02:05:42.583Z,10.84
2019-05-01T02:08:12.124Z,10.87
2019-05-01T02:13:12.600Z,10.88
2019-05-01T02:15:42.065Z,10.88
2019-05-01T02:18:11.920Z,10.89
2019-05-01T02:20:42.049Z,10.88
2019-05-01T02:23:11.499Z,10.91
2019-05-01T02:25:42.724Z,10.92
2019-05-01T02:28:33.856Z,10.96
2019-05-01T02:31:29.271Z,10.99
2019-05-01T02:34:01.233Z,11.02
2019-05-01T02:36:32.066Z,11.06
2019-05-01T02:39:02.434Z,11.08
2019-05-01T02:41:35.769Z,11.10
2019-05-01T02:44:13.377Z,11.13
2019-05-01T02:46:45.644Z,11.15
2019-05-01T02:49:20.099Z,11.18
2019-05-01T02:51:51.354Z,11.22
2019-05-01T02:54:21.726Z,11.24
2019-05-01T02:57:10.677Z,11.25
2019-05-01T02:59:42.211Z,11.27
2019-05-01T03:02:12.185Z,11.30
2019-05-01T03:04:42.444Z,11.36
2019-05-01T03:07:12.314Z,11.41
2019-05-01T03:09:42.455Z,11.47
2019-05-01T03:12:13.752Z,11.50
2019-05-01T03:14:48.783Z,11.52
2019-05-01T03:17:53.861Z,11.57
2019-05-01T03:20:33.667Z,11.60
2019-05-01T03:23:41.105Z,11.64
2019-05-01T03:26:10.476Z,11.70
2019-05-01T03:28:41.761Z,11.81
2019-05-01T03:31:11.170Z,11.87
2019-05-01T03:33:41.902Z,11.94
2019-05-01T03:36:11.574Z,11.97
2019-05-01T03:38:40.988Z,11.99
2019-05-01T03:41:10.644Z,11.97
2019-05-01T03:43:41.360Z,11.94
2019-05-01T03:46:11.751Z,11.95
2019-05-01T03:48:41.322Z,11.98
2019-05-01T03:51:10.687Z,12.02
2019-05-01T03:53:49.853Z,12.08
2019-05-01T03:56:20.250Z,12.14
2019-05-01T03:58:51.059Z,12.21
2019-05-01T04:01:55.049Z,12.28
2019-05-01T04:04:27.422Z,12.29
2019-05-01T04:06:56.873Z,12.31
2019-05-01T04:09:26.298Z,12.39
2019-05-01T04:11:55.962Z,12.42
2019-05-01T04:14:25.341Z,12.46
2019-05-01T04:17:05.265Z,12.52
2019-05-01T04:19:35.070Z,12.56
2019-05-01T04:22:11.179Z,12.59
2019-05-01T04:24:54.749Z,12.61
2019-05-01T04:27:29.320Z,12.65
2019-05-01T04:30:04.676Z,12.66
2019-05-01T04:32:51.205Z,12.71
2019-05-01T04:35:26.415Z,12.78
2019-05-01T04:37:58.202Z,12.85
2019-05-01T04:40:28.297Z,12.93
2019-05-01T04:42:58.164Z,13.01
2019-05-01T04:45:28.882Z,13.09
2019-05-01T04:47:58.392Z,13.17
2019-05-01T04:50:28.301Z,13.25
2019-05-01T04:52:57.814Z,13.30
2019-05-01T04:55:27.499Z,13.35
2019-05-01T04:57:57.080Z,13.43
2019-05-01T05:00:26.834Z,13.52
2019-05-01T05:03:04.894Z,13.61
2019-05-01T05:05:33.846Z,13.66
2019-05-01T05:08:03.953Z,13.74
2019-05-01T05:10:34.082Z,13.77
2019-05-01T05:13:27.041Z,13.76
2019-05-01T05:16:14.111Z,13.76
2019-05-01T05:18:44.099Z,13.75
2019-05-01T05:21:14.069Z,13.72
2019-05-01T05:23:44.311Z,13.70
2019-05-01T05:26:13.815Z,13.71
2019-05-01T05:28:45.456Z,13.74
2019-05-01T05:31:15.645Z,13.79
2019-05-01T05:33:46.838Z,13.88
2019-05-01T05:36:18.107Z,13.92
2019-05-01T05:39:12.987Z,13.89
2019-05-01T05:41:43.767Z,13.85
2019-05-01T05:44:13.363Z,13.80
2019-05-01T05:46:42.991Z,13.73
2019-05-01T05:49:12.695Z,13.69
2019-05-01T05:52:02.097Z,13.65
2019-05-01T05:55:00.105Z,13.54
2019-05-01T05:57:40.671Z,13.43
2019-05-01T06:00:26.298Z,13.34
2019-05-01T06:03:06.140Z,13.34
2019-05-01T06:05:48.700Z,13.37
2019-05-01T06:08:26.427Z,13.44
2019-05-01T06:11:15.099Z,13.51
2019-05-01T06:14:22.122Z,13.50
2019-05-01T06:17:08.072Z,13.52
2019-05-01T06:19:49.683Z,13.56
2019-05-01T06:22:34.690Z,13.66
2019-05-01T06:25:21.619Z,13.77
2019-05-01T06:27:44.801Z,13.94
2019-05-01T06:30:15.669Z,14.06
2019-05-01T06:32:46.085Z,14.18
2019-05-01T06:35:15.579Z,14.25
2019-05-01T06:38:07.549Z,14.27
2019-05-01T06:40:47.564Z,14.33
2019-05-01T06:43:30.088Z,14.32
2019-05-01T06:46:35.555Z,14.32
2019-05-01T06:49:30.963Z,14.35
2019-05-01T06:52:04.266Z,14.44
2019-05-01T06:54:35.574Z,14.46
2019-05-01T06:57:05.772Z,14.39
2019-05-01T06:59:37.685Z,14.32
2019-05-01T07:02:09.231Z,14.30
2019-05-01T07:04:39.679Z,14.38
2019-05-01T07:07:24.022Z,14.38
2019-05-01T07:09:49.378Z,14.38
2019-05-01T07:12:23.999Z,14.34
2019-05-01T07:14:52.380Z,14.31
2019-05-01T07:17:22.227Z,14.21
2019-05-01T07:20:12.055Z,14.12
2019-05-01T07:22:42.346Z,14.04
2019-05-01T07:25:12.173Z,13.98
2019-05-01T07:27:41.688Z,14.00
2019-05-01T07:30:30.508Z,14.01
2019-05-01T07:33:00.535Z,14.01
2019-05-01T07:35:33.071Z,13.98
2019-05-01T07:38:02.426Z,14.03
2019-05-01T07:40:32.828Z,14.12
2019-05-01T07:43:12.533Z,14.29
2019-05-01T07:45:50.282Z,14.41
2019-05-01T07:48:26.600Z,14.47
2019-05-01T07:50:56.336Z,14.55
2019-05-01T07:53:28.338Z,14.66
2019-05-01T07:55:57.364Z,14.74
2019-05-01T07:58:27.007Z,14.89
2019-05-01T08:01:06.107Z,15.11
2019-05-01T08:03:40.908Z,15.32
2019-05-01T08:06:07.278Z,15.41
2019-05-01T08:08:39.707Z,15.43
2019-05-01T08:11:10.136Z,15.37
2019-05-01T08:13:38.982Z,15.32
2019-05-01T08:16:08.820Z,15.25
2019-05-01T08:18:47.622Z,15.19
2019-05-01T08:21:45.979Z,15.30
2019-05-01T08:24:18.020Z,15.54
2019-05-01T08:26:47.161Z,15.75
2019-05-01T08:29:36.904Z,15.87
2019-05-01T08:32:27.060Z,15.98
2019-05-01T08:35:00.622Z,16.13
2019-05-01T08:37:31.119Z,16.23
2019-05-01T08:40:00.604Z,16.29
2019-05-01T08:42:30.020Z,16.35
2019-05-01T08:45:24.181Z,16.55
2019-05-01T08:48:04.517Z,16.82
2019-05-01T08:50:33.913Z,17.14
2019-05-01T08:53:03.287Z,17.45
2019-05-01T08:55:33.536Z,17.66
2019-05-01T08:58:02.904Z,17.78
2019-05-01T09:00:35.973Z,17.92
2019-05-01T09:03:08.520Z,18.10
2019-05-01T09:05:35.101Z,18.33
2019-05-01T09:08:04.559Z,18.59
2019-05-01T09:10:34.090Z,18.70
2019-05-01T09:13:03.478Z,18.62
2019-05-01T09:15:32.846Z,18.61
2019-05-01T09:18:02.371Z,18.61
2019-05-01T09:20:34.157Z,18.58
2019-05-01T09:23:04.061Z,18.45
2019-05-01T09:25:42.694Z,18.38
2019-05-01T09:28:24.428Z,18.19
2019-05-01T09:31:01.642Z,17.92
2019-05-01T09:33:30.926Z,17.60
2019-05-01T09:35:59.621Z,17.40
2019-05-01T09:38:29.328Z,17.34
2019-05-01T09:40:58.746Z,17.33
2019-05-01T09:43:30.926Z,17.22
2019-05-01T09:45:59.444Z,17.20
2019-05-01T09:48:28.905Z,17.25
2019-05-01T09:51:09.144Z,17.24
2019-05-01T09:53:45.887Z,17.12
2019-05-01T09:56:18.411Z,17.05
2019-05-01T09:58:47.869Z,16.97
2019-05-01T10:01:17.421Z,17.00
2019-05-01T10:03:49.466Z,17.21
2019-05-01T10:06:18.861Z,17.43
2019-05-01T10:08:48.376Z,17.58
2019-05-01T10:11:17.921Z,17.73
2019-05-01T10:13:47.304Z,18.16
2019-05-01T10:16:16.756Z,18.31
2019-05-01T10:18:47.267Z,18.35
2019-05-01T10:21:16.787Z,18.27
2019-05-01T10:23:47.092Z,18.30
2019-05-01T10:26:25.397Z,18.11
2019-05-01T10:29:27.503Z,17.96
2019-05-01T10:32:21.667Z,17.75
2019-05-01T10:34:57.062Z,17.49
2019-05-01T10:37:31.775Z,17.30
2019-05-01T10:39:58.211Z,17.06
2019-05-01T10:42:27.725Z,16.86
2019-05-01T10:45:01.037Z,16.65
2019-05-01T10:47:30.505Z,16.59
2019-05-01T10:49:59.886Z,16.57
2019-05-01T10:52:29.413Z,16.59
2019-05-01T10:54:58.795Z,16.55
2019-05-01T10:57:28.352Z,16.63
2019-05-01T10:59:59.798Z,16.83
2019-05-01T11:02:29.182Z,17.03
2019-05-01T11:04:58.567Z,17.24
2019-05-01T11:07:28.143Z,17.46
2019-05-01T11:09:58.816Z,17.48
2019-05-01T11:12:28.298Z,17.48
2019-05-01T11:14:57.955Z,17.48
2019-05-01T11:17:29.509Z,17.40
2019-05-01T11:19:58.905Z,17.46
2019-05-01T11:22:28.390Z,17.52
2019-05-01T11:25:00.510Z,17.65
2019-05-01T11:27:32.478Z,17.96
2019-05-01T11:30:02.019Z,17.98
2019-05-01T11:32:42.924Z,17.93
2019-05-01T11:35:49.739Z,18.07
2019-05-01T11:38:38.258Z,17.98
2019-05-01T11:41:18.105Z,17.97
2019-05-01T11:43:48.387Z,18.37
2019-05-01T11:46:17.808Z,18.47
2019-05-01T11:48:47.307Z,18.30
2019-05-01T11:51:16.871Z,18.16
2019-05-01T11:53:46.287Z,18.26
2019-05-01T11:56:15.711Z,18.25
2019-05-01T11:58:45.077Z,18.30
2019-05-01T12:01:16.205Z,18.26
2019-05-01T12:03:45.650Z,18.20
2019-05-01T12:06:22.766Z,17.87
2019-05-01T12:08:46.245Z,17.69
2019-05-01T12:11:17.401Z,17.66
2019-05-01T12:13:46.788Z,17.61
2019-05-01T12:16:37.749Z,17.67
2019-05-01T12:19:07.161Z,17.73
2019-05-01T12:21:36.553Z,17.72
2019-05-01T12:24:06.068Z,17.68
2019-05-01T12:26:35.514Z,17.82
2019-05-01T12:29:06.726Z,18.11
2019-05-01T12:31:36.335Z,18.26
2019-05-01T12:34:05.809Z,18.27
2019-05-01T12:36:36.711Z,18.31
2019-05-01T12:39:11.886Z,18.29
2019-05-01T12:41:47.386Z,18.21
2019-05-01T12:44:18.974Z,18.21
2019-05-01T12:47:10.184Z,18.27
2019-05-01T12:49:39.784Z,18.43
2019-05-01T12:52:12.826Z,18.60
2019-05-01T12:55:02.905Z,18.54
2019-05-01T12:57:32.328Z,18.42
2019-05-01T13:00:08.393Z,18.46
2019-05-01T13:02:32.900Z,18.56
2019-05-01T13:05:03.925Z,18.48
2019-05-01T13:07:33.318Z,18.62
2019-05-01T13:10:04.050Z,18.63
2019-05-01T13:12:33.419Z,18.61
2019-05-01T13:15:02.825Z,18.58
2019-05-01T13:17:32.327Z,18.47
2019-05-01T13:20:01.702Z,18.38
2019-05-01T13:22:31.193Z,18.23
2019-05-01T13:25:00.608Z,18.18
2019-05-01T13:27:44.842Z,18.19
2019-05-01T13:30:39.089Z,18.22
2019-05-01T13:33:08.538Z,18.22
2019-05-01T13:35:37.954Z,18.15
2019-05-01T13:38:07.626Z,18.19
2019-05-01T13:40:37.002Z,18.04
2019-05-01T13:43:06.604Z,18.08
2019-05-01T13:45:36.384Z,18.08
2019-05-01T13:48:05.838Z,18.16
2019-05-01T13:50:35.292Z,18.19
2019-05-01T13:53:04.854Z,18.26
2019-05-01T13:55:34.252Z,18.21
2019-05-01T13:58:03.781Z,18.18
2019-05-01T14:00:33.237Z,18.38
2019-05-01T14:03:02.636Z,18.47
2019-05-01T14:05:32.019Z,18.39
2019-05-01T14:08:01.455Z,18.36
2019-05-01T14:10:30.937Z,18.43
2019-05-01T14:13:00.326Z,18.48
2019-05-01T14:15:29.811Z,18.50
2019-05-01T14:17:59.179Z,18.54
2019-05-01T14:20:37.251Z,18.49
2019-05-01T14:23:28.713Z,18.40
2019-05-01T14:26:04.908Z,18.46
2019-05-01T14:28:35.896Z,18.42
2019-05-01T14:31:06.204Z,18.33
2019-05-01T14:33:35.675Z,18.33
2019-05-01T14:36:05.928Z,18.25
2019-05-01T14:38:35.293Z,18.08
2019-05-01T14:41:05.728Z,18.03
2019-05-01T14:43:35.090Z,18.02
2019-05-01T14:46:04.495Z,18.05
2019-05-01T14:48:34.233Z,18.15
2019-05-01T14:51:03.688Z,18.15
2019-05-01T14:53:33.135Z,18.13
2019-05-01T14:56:02.654Z,18.04
2019-05-01T14:58:32.055Z,18.03
2019-05-01T15:01:01.448Z,18.03
2019-05-01T15:03:31.069Z,17.96
2019-05-01T15:06:00.429Z,17.86
2019-05-01T15:08:29.936Z,17.73
2019-05-01T15:10:59.338Z,17.63
2019-05-01T15:13:48.329Z,17.58
2019-05-01T15:16:25.764Z,17.54
2019-05-01T15:19:12.713Z,17.58
2019-05-01T15:21:42.134Z,17.57
2019-05-01T15:24:11.623Z,17.52
2019-05-01T15:26:41.252Z,17.53
2019-05-01T15:29:11.273Z,17.54
2019-05-01T15:31:40.698Z,17.54
2019-05-01T15:34:10.090Z,17.60
2019-05-01T15:36:39.644Z,17.70
2019-05-01T15:39:13.866Z,17.84
2019-05-01T15:42:00.759Z,17.96
2019-05-01T15:44:33.254Z,17.92
2019-05-01T15:47:02.694Z,17.91
2019-05-01T15:49:32.413Z,17.86
2019-05-01T15:52:04.209Z,17.79
2019-05-01T15:54:33.580Z,17.79
2019-05-01T15:57:03.144Z,17.82
2019-05-01T15:59:32.519Z,17.69
2019-05-01T16:02:01.921Z,17.60
2019-05-01T16:04:33.307Z,17.48
2019-05-01T16:07:02.640Z,17.30
2019-05-01T16:09:32.019Z,17.18
2019-05-01T16:12:23.619Z,17.09
2019-05-01T16:14:53.083Z,17.03
2019-05-01T16:17:22.499Z,16.93
2019-05-01T16:19:52.037Z,16.86
2019-05-01T16:22:21.413Z,16.84
2019-05-01T16:24:50.992Z,16.79
2019-05-01T16:27:20.674Z,16.75
2019-05-01T16:29:53.176Z,16.70
2019-05-01T16:32:23.063Z,16.65
2019-05-01T16:34:54.879Z,16.55
2019-05-01T16:37:25.306Z,16.50
2019-05-01T16:40:10.101Z,16.43
2019-05-01T16:42:41.526Z,16.35
2019-05-01T16:45:11.803Z,16.26
2019-05-01T16:47:41.211Z,16.15
2019-05-01T16:50:12.697Z,16.06
2019-05-01T16:52:42.439Z,16.01
2019-05-01T16:55:12.078Z,15.96
2019-05-01T16:57:41.544Z,15.89
2019-05-01T17:00:11.904Z,15.85
2019-05-01T17:03:06.489Z,15.80
2019-05-01T17:05:54.956Z,15.76
2019-05-01T17:08:43.294Z,15.67
2019-05-01T17:11:12.888Z,15.62
2019-05-01T17:13:42.303Z,15.59
2019-05-01T17:16:11.878Z,15.54
2019-05-01T17:18:41.254Z,15.46
2019-05-01T17:21:10.718Z,15.38
2019-05-01T17:23:40.088Z,15.31
2019-05-01T17:26:09.670Z,15.26
2019-05-01T17:28:39.022Z,15.24
2019-05-01T17:31:08.607Z,15.18
2019-05-01T17:33:39.649Z,15.14
2019-05-01T17:36:09.017Z,15.10
2019-05-01T17:38:48.924Z,15.06
2019-05-01T17:41:09.833Z,15.02
2019-05-01T17:43:39.221Z,14.96
2019-05-01T17:46:10.676Z,14.90
2019-05-01T17:48:39.988Z,14.85
2019-05-01T17:51:09.397Z,14.82
2019-05-01T17:53:38.873Z,14.78
2019-05-01T17:56:09.969Z,14.77
2019-05-01T17:58:39.482Z,14.77
2019-05-01T18:01:36.900Z,14.75
2019-05-01T18:04:25.146Z,14.72
2019-05-01T18:06:54.531Z,14.65
2019-05-01T18:09:24.043Z,14.61
2019-05-01T18:11:53.724Z,14.57
2019-05-01T18:14:23.209Z,14.52
2019-05-01T18:16:52.665Z,14.46
2019-05-01T18:19:22.082Z,14.41
2019-05-01T18:21:59.363Z,14.38
2019-05-01T18:24:46.367Z,14.36
2019-05-01T18:27:49.916Z,14.34
2019-05-01T18:30:22.269Z,14.28
2019-05-01T18:32:52.547Z,14.20
2019-05-01T18:35:22.060Z,14.16
2019-05-01T18:38:06.435Z,14.11
2019-05-01T18:40:40.307Z,14.08
2019-05-01T18:43:10.023Z,14.04
2019-05-01T18:45:54.320Z,13.98
2019-05-01T18:48:24.712Z,13.94
2019-05-01T18:50:56.397Z,13.91
2019-05-01T18:53:26.144Z,13.87
2019-05-01T18:55:55.876Z,13.85
2019-05-01T18:58:25.477Z,13.82
2019-05-01T19:00:57.097Z,13.80
2019-05-01T19:03:26.502Z,13.77
2019-05-01T19:06:02.830Z,13.78
2019-05-01T19:08:32.512Z,13.82
2019-05-01T19:11:12.209Z,13.90
2019-05-01T19:13:33.506Z,13.92
2019-05-01T19:16:08.204Z,13.97
2019-05-01T19:18:36.608Z,13.95
2019-05-01T19:21:06.345Z,13.94
2019-05-01T19:23:36.343Z,13.91
2019-05-01T19:26:06.866Z,13.90
2019-05-01T19:28:36.420Z,13.86
2019-05-01T19:31:06.094Z,13.85
2019-05-01T19:33:35.637Z,13.85
2019-05-01T19:36:08.056Z,13.87
2019-05-01T19:38:36.976Z,13.90
2019-05-01T19:41:08.398Z,13.90
2019-05-01T19:43:40.576Z,13.87
2019-05-01T19:46:12.351Z,13.84
2019-05-01T19:48:45.408Z,13.80
2019-05-01T19:51:13.200Z,13.72
2019-05-01T19:53:46.435Z,13.68
2019-05-01T19:56:16.639Z,13.66
2019-05-01T19:58:44.957Z,13.63
2019-05-01T20:01:14.352Z,13.59
2019-05-01T20:03:43.860Z,13.56
2019-05-01T20:06:15.377Z,13.50
2019-05-01T20:08:44.736Z,13.45
2019-05-01T20:11:14.138Z,13.40
2019-05-01T20:13:43.523Z,13.38
2019-05-01T20:16:13.286Z,13.35
2019-05-01T20:18:42.645Z,13.32
2019-05-01T20:21:12.472Z,13.28
2019-05-01T20:23:41.843Z,13.20
2019-05-01T20:26:11.251Z,13.14
2019-05-01T20:28:40.601Z,13.10
2019-05-01T20:31:10.287Z,13.04
2019-05-01T20:33:44.197Z,12.99
2019-05-01T20:36:10.887Z,12.95
2019-05-01T20:38:40.236Z,12.90
2019-05-01T20:41:10.304Z,12.83
2019-05-01T20:43:43.513Z,12.78
2019-05-01T20:46:12.312Z,12.71
2019-05-01T20:48:41.697Z,12.66
2019-05-01T20:51:11.133Z,12.62
2019-05-01T20:53:40.539Z,12.57
2019-05-01T20:56:44.173Z,12.51
2019-05-01T20:59:13.554Z,12.43
2019-05-01T21:01:42.928Z,12.31
2019-05-01T21:04:40.695Z,12.23
2019-05-01T21:07:20.104Z,12.10
2019-05-01T21:09:52.657Z,12.00
2019-05-01T21:12:19.256Z,11.92
2019-05-01T21:14:49.546Z,11.87
2019-05-01T21:17:19.339Z,11.86
2019-05-01T21:19:48.851Z,11.86
2019-05-01T21:22:23.435Z,11.84
2019-05-01T21:24:53.353Z,11.81
2019-05-01T21:27:24.897Z,11.76
2019-05-01T21:29:54.749Z,11.74
2019-05-01T21:32:27.723Z,11.72
2019-05-01T21:34:57.200Z,11.72
2019-05-01T21:37:29.681Z,11.70
2019-05-01T21:40:02.730Z,11.67
2019-05-01T21:42:32.667Z,11.67
2019-05-01T21:45:04.257Z,11.66
2019-05-01T21:47:33.690Z,11.66
2019-05-01T21:50:03.278Z,11.66
2019-05-01T21:52:33.252Z,11.64
2019-05-01T21:55:02.727Z,11.64
2019-05-01T21:57:40.995Z,11.63
2019-05-01T22:00:12.064Z,11.62
2019-05-01T22:02:46.272Z,11.64
2019-05-01T22:05:12.668Z,11.65
2019-05-01T22:07:42.254Z,11.66
2019-05-01T22:10:12.238Z,11.65
2019-05-01T22:12:47.336Z,11.65
2019-05-01T22:15:26.728Z,11.68
2019-05-01T22:18:13.957Z,11.73
2019-05-01T22:20:51.319Z,11.76
2019-05-01T22:23:23.302Z,11.80
2019-05-01T22:25:57.322Z,11.83
2019-05-01T22:28:54.788Z,11.85
2019-05-01T22:31:44.193Z,11.85
2019-05-01T22:34:22.805Z,11.85
2019-05-01T22:36:54.847Z,11.84
2019-05-01T22:39:28.778Z,11.86
2019-05-01T22:41:57.638Z,11.90
2019-05-01T22:44:39.893Z,11.87
2019-05-01T22:47:10.212Z,11.84
2019-05-01T22:49:40.389Z,11.75
2019-05-01T22:52:09.846Z,11.69
2019-05-01T22:54:44.988Z,11.52
2019-05-01T22:57:13.617Z,11.30
2019-05-01T23:00:04.942Z,11.06
2019-05-01T23:02:40.211Z,10.89
2019-05-01T23:05:10.522Z,10.68
2019-05-01T23:07:39.894Z,10.55
2019-05-01T23:10:10.549Z,10.49
2019-05-01T23:12:39.979Z,10.49
2019-05-01T23:15:14.886Z,10.49
2019-05-01T23:17:45.926Z,10.50
2019-05-01T23:20:16.003Z,10.51
2019-05-01T23:22:45.503Z,10.51
2019-05-01T23:25:16.202Z,10.56
2019-05-01T23:27:45.576Z,10.59
2019-05-01T23:30:20.958Z,10.65
2019-05-01T23:32:53.575Z,10.68
2019-05-01T23:35:25.851Z,10.65
2019-05-01T23:37:55.341Z,10.61
2019-05-01T23:40:24.916Z,10.58
2019-05-01T23:42:54.437Z,10.53
2019-05-01T23:45:26.456Z,10.51
2019-05-01T23:47:58.156Z,10.47
2019-05-01T23:50:27.513Z,10.41
2019-05-01T23:52:59.071Z,10.45
2019-05-01T23:55:28.518Z,10.50
2019-05-01T23:57:58.010Z,10.54
